LFOP/URO METAR and TAF weather

Enter ICAO airport designator
Station Type Date Time Source
LFOP METAR 2019/04/23 04:30 UTC NOAA

LFOP 230430Z AUTO 03004KT CAVOK 11/06 Q0996


Station Type Date Time Source
LFOP Decoded METAR 2019/04/23 04:30 UTC NOAA

Rouen, France (LFOP) 49-23N 001-11E 157M
Apr 23, 2019 - 12:30 AM EDT / 2019.04.23 0430 UTC
Wind: from the NNE (030 degrees) at 5 MPH (4 KT):0
Visibility: greater than 7 mile(s):0
Temperature: 51 F (11 C)
Dew Point: 42 F (6 C)
Relative Humidity: 71%
Pressure (altimeter): 29.41 in. Hg (0996 hPa)
ob: LFOP 230430Z AUTO 03004KT CAVOK 11/06 Q0996
cycle: 4

Station Type Date Time Source
LFOP TAF 2019/04/22 20:06 UTC NOAA

TAF LFOP 222002Z 2220/2318 CNL

Example: see airport list